WCOM7: Spring River, Waco, MO

                                SHEF ID:       WCOM7     Spring R A - Waco MO
STATION TYPE: Stream Gauge
Regulating: Stage = 19.00, Flow = 17743

PRECIP STAGE RIV-FLOW BAT-LOAD
in ft cfs volt
Ccp-Rev Ccp-Rev Ccp-Rev Ccp-Rev
(America/Chicago)
04/29 00:00 0.00 7.63 4661 12.27
04/29 01:00 0.00 7.75 4777 12.23
04/29 02:00 0.00 7.92 4943 12.17
04/29 03:00 0.00 8.05 5068 12.14
04/29 04:00 0.00 8.16 5176 12.07
04/29 05:00 0.00 8.05 5068 12.02
04/29 06:00 0.00 8.14 5156 12.04
04/29 07:00 0.00 8.09 5107 12.02
04/29 08:00 0.00 7.99 5010 12.11
04/29 09:00 0.00 7.76 4787 12.30
04/29 10:00 0.00 7.54 4575 12.53
04/29 11:00 0.00 7.40 4442 13.24
04/29 12:00 0.00 7.25 4300 13.19
04/29 13:00 0.00 7.11 4169 13.11
04/29 14:00 0.00 6.88 3951 13.15
04/29 15:00 0.00 6.72 3801 13.03
04/29 16:00 0.00 6.47 3570 12.65
04/29 17:00 0.00 6.28 3398 12.58
04/29 18:00 0.00 6.09 3227 12.57
04/29 19:00 0.00 5.97 3122 12.57
04/29 20:00 0.00 5.84 3015 12.46
04/29 21:00 0.00 5.64 2852 12.27
04/29 22:00 0.00 5.54 2772 12.18
04/29 23:00 0.00 5.43 2682 12.15
Data processed at Thu 30Apr2026 04:37 GMT

NOTICE: If you are parsing this page

Please convert to using our Data API. Starting early 2026 we will be migrating to: https://water.usace.army.mil with modern pages rendered in JavaScript. When this migration completes you will no longer be able to scrape this page! CWMSDataAPI (CDA)

Timeseries IDs (TSIDs)

TSIDs used from left to right in the data table
WACO.Precip-Inc.Total.1Hour.1Hour.Ccp-Rev
WACO.Stage.Inst.1Hour.0.Ccp-Rev
WACO.Flow.Inst.1Hour.0.Ccp-Rev
WACO.Volt-Battery Load.Inst.1Hour.0.Ccp-Rev

                            

All information presented herein is the property of the government of the United States of America and may be revised or deleted at any time without prior notice. Dissemination of this information without the expressed written consent of the Public Affairs Office, Tulsa District U.S. Army Corps of Engineers is strictly prohibited. These data are gathered electronically and, as presented, have NOT undergone any form of quality control. These data are NOT guaranteed to be valid or correct.